sensor_id;sensor_type;location;lat;lon;timestamp;P1;durP1;ratioP1;P2;durP2;ratioP2
30173;SDS011;16985;50.814;8.530;2023-03-01T00:01:33;22.35;;;14.55;;
30173;SDS011;16985;50.814;8.530;2023-03-01T00:04:02;24.33;;;15.13;;
30173;SDS011;16985;50.814;8.530;2023-03-01T00:06:33;18.08;;;12.15;;
30173;SDS011;16985;50.814;8.530;2023-03-01T00:08:59;21.15;;;12.65;;
30173;SDS011;16985;50.814;8.530;2023-03-01T00:11:26;22.90;;;14.10;;
30173;SDS011;16985;50.814;8.530;2023-03-01T00:13:56;18.10;;;12.82;;
30173;SDS011;16985;50.814;8.530;2023-03-01T00:16:36;26.88;;;13.15;;
30173;SDS011;16985;50.814;8.530;2023-03-01T00:19:05;21.58;;;13.10;;
30173;SDS011;16985;50.814;8.530;2023-03-01T00:21:33;28.75;;;13.15;;
30173;SDS011;16985;50.814;8.530;2023-03-01T00:24:00;24.42;;;13.25;;
30173;SDS011;16985;50.814;8.530;2023-03-01T00:26:27;29.63;;;16.55;;
30173;SDS011;16985;50.814;8.530;2023-03-01T00:28:53;27.48;;;16.08;;
30173;SDS011;16985;50.814;8.530;2023-03-01T00:31:23;25.25;;;16.08;;
30173;SDS011;16985;50.814;8.530;2023-03-01T00:33:55;31.63;;;16.83;;
30173;SDS011;16985;50.814;8.530;2023-03-01T00:36:28;30.63;;;16.50;;
30173;SDS011;16985;50.814;8.530;2023-03-01T00:38:58;30.15;;;17.08;;
30173;SDS011;16985;50.814;8.530;2023-03-01T00:41:26;26.88;;;15.85;;
30173;SDS011;16985;50.814;8.530;2023-03-01T00:43:52;25.92;;;16.08;;
30173;SDS011;16985;50.814;8.530;2023-03-01T00:46:20;22.48;;;14.18;;
30173;SDS011;16985;50.814;8.530;2023-03-01T00:48:49;25.13;;;15.32;;
30173;SDS011;16985;50.814;8.530;2023-03-01T00:51:19;26.65;;;14.55;;
30173;SDS011;16985;50.814;8.530;2023-03-01T00:53:50;22.55;;;14.38;;
30173;SDS011;16985;50.814;8.530;2023-03-01T00:56:17;21.92;;;13.73;;
30173;SDS011;16985;50.814;8.530;2023-03-01T00:58:43;23.92;;;14.35;;
30173;SDS011;16985;50.814;8.530;2023-03-01T01:01:10;31.25;;;14.65;;
30173;SDS011;16985;50.814;8.530;2023-03-01T01:03:48;24.55;;;14.43;;
30173;SDS011;16985;50.814;8.530;2023-03-01T01:06:23;25.00;;;15.32;;
30173;SDS011;16985;50.814;8.530;2023-03-01T01:08:58;20.05;;;14.20;;
30173;SDS011;16985;50.814;8.530;2023-03-01T01:11:26;27.00;;;14.73;;
30173;SDS011;16985;50.814;8.530;2023-03-01T01:13:54;18.75;;;12.93;;
30173;SDS011;16985;50.814;8.530;2023-03-01T01:16:21;25.75;;;13.25;;
30173;SDS011;16985;50.814;8.530;2023-03-01T01:18:49;23.83;;;12.50;;
30173;SDS011;16985;50.814;8.530;2023-03-01T01:21:16;20.42;;;13.82;;
30173;SDS011;16985;50.814;8.530;2023-03-01T01:23:46;19.92;;;13.60;;
30173;SDS011;16985;50.814;8.530;2023-03-01T01:26:20;21.45;;;12.85;;
30173;SDS011;16985;50.814;8.530;2023-03-01T01:28:55;27.10;;;13.38;;
30173;SDS011;16985;50.814;8.530;2023-03-01T01:31:22;23.02;;;13.65;;
30173;SDS011;16985;50.814;8.530;2023-03-01T01:33:49;30.23;;;13.52;;
30173;SDS011;16985;50.814;8.530;2023-03-01T01:36:20;19.98;;;13.05;;
30173;SDS011;16985;50.814;8.530;2023-03-01T01:38:46;20.75;;;12.30;;
30173;SDS011;16985;50.814;8.530;2023-03-01T01:41:12;22.98;;;14.82;;
30173;SDS011;16985;50.814;8.530;2023-03-01T01:44:23;18.42;;;13.25;;
30173;SDS011;16985;50.814;8.530;2023-03-01T01:46:38;20.80;;;12.48;;
30173;SDS011;16985;50.814;8.530;2023-03-01T01:49:16;17.05;;;12.25;;
30173;SDS011;16985;50.814;8.530;2023-03-01T01:52:26;18.95;;;12.75;;
30173;SDS011;16985;50.814;8.530;2023-03-01T01:55:04;19.92;;;13.00;;
30173;SDS011;16985;50.814;8.530;2023-03-01T01:57:53;19.55;;;12.55;;
30173;SDS011;16985;50.814;8.530;2023-03-01T02:00:26;24.08;;;12.63;;
30173;SDS011;16985;50.814;8.530;2023-03-01T02:02:59;21.73;;;13.00;;
30173;SDS011;16985;50.814;8.530;2023-03-01T02:05:34;18.95;;;12.60;;
30173;SDS011;16985;50.814;8.530;2023-03-01T02:08:30;25.58;;;13.85;;
30173;SDS011;16985;50.814;8.530;2023-03-01T02:11:00;23.70;;;13.48;;
30173;SDS011;16985;50.814;8.530;2023-03-01T02:13:29;21.10;;;14.20;;
30173;SDS011;16985;50.814;8.530;2023-03-01T02:15:56;22.50;;;14.48;;
30173;SDS011;16985;50.814;8.530;2023-03-01T02:18:23;24.80;;;14.48;;
30173;SDS011;16985;50.814;8.530;2023-03-01T02:21:02;22.13;;;13.68;;
30173;SDS011;16985;50.814;8.530;2023-03-01T02:23:36;24.88;;;13.60;;
30173;SDS011;16985;50.814;8.530;2023-03-01T02:29:00;24.65;;;14.85;;
30173;SDS011;16985;50.814;8.530;2023-03-01T02:31:26;23.40;;;13.88;;
30173;SDS011;16985;50.814;8.530;2023-03-01T02:34:08;26.13;;;15.85;;
30173;SDS011;16985;50.814;8.530;2023-03-01T02:36:44;28.40;;;16.83;;
30173;SDS011;16985;50.814;8.530;2023-03-01T02:39:18;27.10;;;18.65;;
30173;SDS011;16985;50.814;8.530;2023-03-01T02:41:52;24.67;;;17.80;;
30173;SDS011;16985;50.814;8.530;2023-03-01T02:44:20;30.52;;;19.70;;
30173;SDS011;16985;50.814;8.530;2023-03-01T02:46:47;28.27;;;19.48;;
30173;SDS011;16985;50.814;8.530;2023-03-01T02:49:21;29.67;;;19.63;;
30173;SDS011;16985;50.814;8.530;2023-03-01T02:54:28;32.63;;;19.45;;
30173;SDS011;16985;50.814;8.530;2023-03-01T02:57:06;25.80;;;18.08;;
30173;SDS011;16985;50.814;8.530;2023-03-01T02:59:33;32.25;;;20.35;;
30173;SDS011;16985;50.814;8.530;2023-03-01T03:02:06;26.80;;;18.20;;
30173;SDS011;16985;50.814;8.530;2023-03-01T03:04:33;28.45;;;18.90;;
30173;SDS011;16985;50.814;8.530;2023-03-01T03:06:59;26.42;;;17.13;;
30173;SDS011;16985;50.814;8.530;2023-03-01T03:09:25;30.73;;;17.08;;
30173;SDS011;16985;50.814;8.530;2023-03-01T03:11:51;23.23;;;15.43;;
30173;SDS011;16985;50.814;8.530;2023-03-01T03:14:17;24.60;;;16.27;;
30173;SDS011;16985;50.814;8.530;2023-03-01T03:16:47;24.85;;;15.30;;
30173;SDS011;16985;50.814;8.530;2023-03-01T03:19:14;26.67;;;15.57;;
30173;SDS011;16985;50.814;8.530;2023-03-01T03:21:41;23.20;;;14.50;;
30173;SDS011;16985;50.814;8.530;2023-03-01T03:24:07;31.13;;;14.85;;
30173;SDS011;16985;50.814;8.530;2023-03-01T03:26:33;23.55;;;15.05;;
30173;SDS011;16985;50.814;8.530;2023-03-01T03:28:59;26.80;;;14.80;;
30173;SDS011;16985;50.814;8.530;2023-03-01T03:31:25;23.70;;;14.70;;
30173;SDS011;16985;50.814;8.530;2023-03-01T03:33:51;23.65;;;14.75;;
30173;SDS011;16985;50.814;8.530;2023-03-01T03:36:21;21.63;;;13.35;;
30173;SDS011;16985;50.814;8.530;2023-03-01T03:38:49;20.95;;;13.60;;
30173;SDS011;16985;50.814;8.530;2023-03-01T03:41:15;28.92;;;15.98;;
30173;SDS011;16985;50.814;8.530;2023-03-01T03:43:42;22.83;;;14.18;;
30173;SDS011;16985;50.814;8.530;2023-03-01T03:46:09;26.55;;;14.20;;
30173;SDS011;16985;50.814;8.530;2023-03-01T03:48:38;26.23;;;15.63;;
30173;SDS011;16985;50.814;8.530;2023-03-01T03:51:13;24.27;;;13.75;;
30173;SDS011;16985;50.814;8.530;2023-03-01T03:53:41;25.08;;;14.13;;
30173;SDS011;16985;50.814;8.530;2023-03-01T03:56:08;23.85;;;14.30;;
30173;SDS011;16985;50.814;8.530;2023-03-01T03:58:34;26.02;;;13.75;;
30173;SDS011;16985;50.814;8.530;2023-03-01T04:01:01;25.73;;;14.07;;
30173;SDS011;16985;50.814;8.530;2023-03-01T04:03:28;30.08;;;16.58;;
30173;SDS011;16985;50.814;8.530;2023-03-01T04:05:57;24.85;;;14.07;;
30173;SDS011;16985;50.814;8.530;2023-03-01T04:08:24;27.17;;;15.43;;
30173;SDS011;16985;50.814;8.530;2023-03-01T04:10:51;21.45;;;14.13;;
30173;SDS011;16985;50.814;8.530;2023-03-01T04:13:22;26.73;;;15.25;;
30173;SDS011;16985;50.814;8.530;2023-03-01T04:15:53;24.70;;;14.80;;
30173;SDS011;16985;50.814;8.530;2023-03-01T04:18:20;22.17;;;14.48;;
30173;SDS011;16985;50.814;8.530;2023-03-01T04:20:47;24.98;;;13.93;;
30173;SDS011;16985;50.814;8.530;2023-03-01T04:23:17;25.73;;;14.82;;
30173;SDS011;16985;50.814;8.530;2023-03-01T04:28:18;30.58;;;14.77;;
30173;SDS011;16985;50.814;8.530;2023-03-01T04:30:46;26.17;;;15.57;;
30173;SDS011;16985;50.814;8.530;2023-03-01T04:33:11;26.55;;;13.73;;
30173;SDS011;16985;50.814;8.530;2023-03-01T04:35:38;22.08;;;14.18;;
30173;SDS011;16985;50.814;8.530;2023-03-01T04:38:05;23.95;;;13.40;;
30173;SDS011;16985;50.814;8.530;2023-03-01T04:40:31;24.92;;;14.90;;
30173;SDS011;16985;50.814;8.530;2023-03-01T04:42:58;28.85;;;15.25;;
30173;SDS011;16985;50.814;8.530;2023-03-01T04:45:24;24.60;;;14.38;;
30173;SDS011;16985;50.814;8.530;2023-03-01T04:47:49;33.53;;;15.77;;
30173;SDS011;16985;50.814;8.530;2023-03-01T04:50:17;26.83;;;15.52;;
30173;SDS011;16985;50.814;8.530;2023-03-01T04:52:48;25.83;;;15.90;;
30173;SDS011;16985;50.814;8.530;2023-03-01T04:55:14;27.98;;;15.65;;
30173;SDS011;16985;50.814;8.530;2023-03-01T04:57:40;30.77;;;16.38;;
30173;SDS011;16985;50.814;8.530;2023-03-01T05:00:08;35.40;;;16.88;;
30173;SDS011;16985;50.814;8.530;2023-03-01T05:02:54;32.40;;;17.85;;
30173;SDS011;16985;50.814;8.530;2023-03-01T05:05:25;37.00;;;17.65;;
30173;SDS011;16985;50.814;8.530;2023-03-01T05:07:59;34.47;;;18.58;;
30173;SDS011;16985;50.814;8.530;2023-03-01T05:10:30;32.85;;;18.23;;
30173;SDS011;16985;50.814;8.530;2023-03-01T05:13:00;33.42;;;19.48;;
30173;SDS011;16985;50.814;8.530;2023-03-01T05:15:27;38.20;;;20.73;;
30173;SDS011;16985;50.814;8.530;2023-03-01T05:17:55;45.08;;;22.90;;
30173;SDS011;16985;50.814;8.530;2023-03-01T05:20:24;45.67;;;23.85;;
30173;SDS011;16985;50.814;8.530;2023-03-01T05:22:52;49.92;;;24.40;;
30173;SDS011;16985;50.814;8.530;2023-03-01T05:25:23;42.53;;;22.63;;
30173;SDS011;16985;50.814;8.530;2023-03-01T05:27:49;39.40;;;22.02;;
30173;SDS011;16985;50.814;8.530;2023-03-01T05:30:16;42.60;;;23.08;;
30173;SDS011;16985;50.814;8.530;2023-03-01T05:32:43;42.33;;;23.65;;
30173;SDS011;16985;50.814;8.530;2023-03-01T05:35:13;40.83;;;22.75;;
30173;SDS011;16985;50.814;8.530;2023-03-01T05:37:45;46.35;;;25.95;;
30173;SDS011;16985;50.814;8.530;2023-03-01T05:40:14;43.63;;;25.58;;
30173;SDS011;16985;50.814;8.530;2023-03-01T05:42:46;46.13;;;25.85;;
30173;SDS011;16985;50.814;8.530;2023-03-01T05:45:15;37.78;;;22.58;;
30173;SDS011;16985;50.814;8.530;2023-03-01T05:47:43;44.72;;;24.38;;
30173;SDS011;16985;50.814;8.530;2023-03-01T05:50:15;46.92;;;25.80;;
30173;SDS011;16985;50.814;8.530;2023-03-01T05:52:50;43.05;;;24.02;;
30173;SDS011;16985;50.814;8.530;2023-03-01T05:55:24;39.03;;;23.63;;
30173;SDS011;16985;50.814;8.530;2023-03-01T05:57:51;34.55;;;20.92;;
30173;SDS011;16985;50.814;8.530;2023-03-01T06:00:20;36.60;;;21.27;;
30173;SDS011;16985;50.814;8.530;2023-03-01T06:02:49;33.28;;;20.20;;
30173;SDS011;16985;50.814;8.530;2023-03-01T06:05:17;34.55;;;20.60;;
30173;SDS011;16985;50.814;8.530;2023-03-01T06:07:43;39.92;;;20.10;;
30173;SDS011;16985;50.814;8.530;2023-03-01T06:10:09;30.92;;;17.80;;
30173;SDS011;16985;50.814;8.530;2023-03-01T06:12:37;32.90;;;19.83;;
30173;SDS011;16985;50.814;8.530;2023-03-01T06:17:32;33.63;;;18.98;;
30173;SDS011;16985;50.814;8.530;2023-03-01T06:20:03;36.40;;;19.98;;
30173;SDS011;16985;50.814;8.530;2023-03-01T06:22:31;38.22;;;19.42;;
30173;SDS011;16985;50.814;8.530;2023-03-01T06:24:57;40.17;;;19.92;;
30173;SDS011;16985;50.814;8.530;2023-03-01T06:27:22;39.25;;;17.90;;
30173;SDS011;16985;50.814;8.530;2023-03-01T06:29:48;35.30;;;18.65;;
30173;SDS011;16985;50.814;8.530;2023-03-01T06:32:14;34.47;;;18.13;;
30173;SDS011;16985;50.814;8.530;2023-03-01T06:34:40;33.75;;;19.63;;
30173;SDS011;16985;50.814;8.530;2023-03-01T06:37:06;35.72;;;19.50;;
30173;SDS011;16985;50.814;8.530;2023-03-01T06:39:32;35.97;;;18.90;;
30173;SDS011;16985;50.814;8.530;2023-03-01T06:41:58;39.83;;;21.88;;
30173;SDS011;16985;50.814;8.530;2023-03-01T06:44:25;46.30;;;24.45;;
30173;SDS011;16985;50.814;8.530;2023-03-01T06:46:51;56.65;;;27.48;;
30173;SDS011;16985;50.814;8.530;2023-03-01T06:49:17;51.70;;;26.75;;
30173;SDS011;16985;50.814;8.530;2023-03-01T06:51:44;63.05;;;27.50;;
30173;SDS011;16985;50.814;8.530;2023-03-01T06:54:11;53.97;;;27.17;;
30173;SDS011;16985;50.814;8.530;2023-03-01T06:56:40;53.67;;;27.65;;
30173;SDS011;16985;50.814;8.530;2023-03-01T06:59:06;53.83;;;27.98;;
30173;SDS011;16985;50.814;8.530;2023-03-01T07:01:34;52.50;;;26.83;;
30173;SDS011;16985;50.814;8.530;2023-03-01T07:04:07;51.90;;;25.98;;
30173;SDS011;16985;50.814;8.530;2023-03-01T07:06:33;48.00;;;24.55;;
30173;SDS011;16985;50.814;8.530;2023-03-01T07:08:59;49.70;;;24.80;;
30173;SDS011;16985;50.814;8.530;2023-03-01T07:11:24;44.83;;;22.63;;
30173;SDS011;16985;50.814;8.530;2023-03-01T07:13:50;45.60;;;23.48;;
30173;SDS011;16985;50.814;8.530;2023-03-01T07:16:16;44.65;;;23.35;;
30173;SDS011;16985;50.814;8.530;2023-03-01T07:18:42;40.28;;;23.58;;
30173;SDS011;16985;50.814;8.530;2023-03-01T07:21:08;34.90;;;20.77;;
30173;SDS011;16985;50.814;8.530;2023-03-01T07:23:37;39.70;;;20.30;;
30173;SDS011;16985;50.814;8.530;2023-03-01T07:26:03;38.75;;;21.67;;
30173;SDS011;16985;50.814;8.530;2023-03-01T07:28:29;37.05;;;19.75;;
30173;SDS011;16985;50.814;8.530;2023-03-01T07:31:00;33.38;;;18.63;;
30173;SDS011;16985;50.814;8.530;2023-03-01T07:33:27;31.17;;;19.02;;
30173;SDS011;16985;50.814;8.530;2023-03-01T07:35:59;30.10;;;17.30;;
30173;SDS011;16985;50.814;8.530;2023-03-01T07:38:27;31.15;;;18.02;;
30173;SDS011;16985;50.814;8.530;2023-03-01T07:40:53;32.65;;;17.50;;
30173;SDS011;16985;50.814;8.530;2023-03-01T07:43:23;28.00;;;17.05;;
30173;SDS011;16985;50.814;8.530;2023-03-01T07:45:49;32.30;;;17.42;;
30173;SDS011;16985;50.814;8.530;2023-03-01T07:48:15;28.33;;;17.33;;
30173;SDS011;16985;50.814;8.530;2023-03-01T07:50:41;25.30;;;16.40;;
30173;SDS011;16985;50.814;8.530;2023-03-01T07:53:07;29.88;;;18.13;;
30173;SDS011;16985;50.814;8.530;2023-03-01T07:55:34;38.53;;;18.55;;
30173;SDS011;16985;50.814;8.530;2023-03-01T07:57:59;34.38;;;17.70;;
30173;SDS011;16985;50.814;8.530;2023-03-01T08:00:25;25.40;;;17.02;;
30173;SDS011;16985;50.814;8.530;2023-03-01T08:02:51;29.73;;;17.13;;
30173;SDS011;16985;50.814;8.530;2023-03-01T08:05:17;36.15;;;17.60;;
30173;SDS011;16985;50.814;8.530;2023-03-01T08:07:43;29.08;;;17.25;;
30173;SDS011;16985;50.814;8.530;2023-03-01T08:10:09;27.92;;;15.88;;
30173;SDS011;16985;50.814;8.530;2023-03-01T08:12:36;26.95;;;15.52;;
30173;SDS011;16985;50.814;8.530;2023-03-01T08:15:02;26.15;;;15.85;;
30173;SDS011;16985;50.814;8.530;2023-03-01T08:17:28;25.83;;;16.05;;
30173;SDS011;16985;50.814;8.530;2023-03-01T08:19:54;30.58;;;15.77;;
30173;SDS011;16985;50.814;8.530;2023-03-01T08:22:19;26.33;;;15.90;;
30173;SDS011;16985;50.814;8.530;2023-03-01T08:24:46;26.13;;;15.98;;
30173;SDS011;16985;50.814;8.530;2023-03-01T08:27:12;22.13;;;13.52;;
30173;SDS011;16985;50.814;8.530;2023-03-01T08:29:38;25.38;;;14.55;;
30173;SDS011;16985;50.814;8.530;2023-03-01T08:32:04;24.50;;;15.10;;
30173;SDS011;16985;50.814;8.530;2023-03-01T08:34:29;26.10;;;14.63;;
30173;SDS011;16985;50.814;8.530;2023-03-01T08:36:56;27.85;;;15.10;;
30173;SDS011;16985;50.814;8.530;2023-03-01T08:39:23;22.67;;;13.00;;
30173;SDS011;16985;50.814;8.530;2023-03-01T08:41:48;31.50;;;14.70;;
30173;SDS011;16985;50.814;8.530;2023-03-01T08:44:15;28.58;;;13.55;;
30173;SDS011;16985;50.814;8.530;2023-03-01T08:46:46;22.65;;;14.55;;
30173;SDS011;16985;50.814;8.530;2023-03-01T08:49:16;24.50;;;13.05;;
30173;SDS011;16985;50.814;8.530;2023-03-01T08:51:44;20.85;;;13.48;;
30173;SDS011;16985;50.814;8.530;2023-03-01T08:54:12;21.75;;;13.80;;
30173;SDS011;16985;50.814;8.530;2023-03-01T08:56:43;21.85;;;14.40;;
30173;SDS011;16985;50.814;8.530;2023-03-01T08:59:10;20.80;;;14.00;;
30173;SDS011;16985;50.814;8.530;2023-03-01T09:01:37;23.00;;;13.82;;
30173;SDS011;16985;50.814;8.530;2023-03-01T09:04:05;24.67;;;13.43;;
30173;SDS011;16985;50.814;8.530;2023-03-01T09:06:32;22.02;;;12.65;;
30173;SDS011;16985;50.814;8.530;2023-03-01T09:08:59;21.83;;;13.73;;
30173;SDS011;16985;50.814;8.530;2023-03-01T09:11:26;22.20;;;13.18;;
30173;SDS011;16985;50.814;8.530;2023-03-01T09:13:56;22.65;;;13.32;;
30173;SDS011;16985;50.814;8.530;2023-03-01T09:16:22;20.27;;;12.38;;
30173;SDS011;16985;50.814;8.530;2023-03-01T09:18:49;24.17;;;13.27;;
30173;SDS011;16985;50.814;8.530;2023-03-01T09:21:19;24.13;;;11.27;;
30173;SDS011;16985;50.814;8.530;2023-03-01T09:26:18;22.92;;;11.82;;
30173;SDS011;16985;50.814;8.530;2023-03-01T09:28:47;21.83;;;12.45;;
30173;SDS011;16985;50.814;8.530;2023-03-01T09:31:15;20.20;;;12.32;;
30173;SDS011;16985;50.814;8.530;2023-03-01T09:33:44;21.80;;;13.02;;
30173;SDS011;16985;50.814;8.530;2023-03-01T09:36:13;21.42;;;13.52;;
30173;SDS011;16985;50.814;8.530;2023-03-01T09:38:43;18.17;;;11.50;;
30173;SDS011;16985;50.814;8.530;2023-03-01T09:44:20;21.90;;;11.52;;
30173;SDS011;16985;50.814;8.530;2023-03-01T09:47:21;21.08;;;11.10;;
30173;SDS011;16985;50.814;8.530;2023-03-01T09:50:14;19.73;;;11.13;;
30173;SDS011;16985;50.814;8.530;2023-03-01T09:55:37;21.20;;;12.05;;
30173;SDS011;16985;50.814;8.530;2023-03-01T10:04:57;18.65;;;11.57;;
30173;SDS011;16985;50.814;8.530;2023-03-01T10:08:02;19.67;;;10.55;;
30173;SDS011;16985;50.814;8.530;2023-03-01T10:10:50;17.05;;;9.95;;
30173;SDS011;16985;50.814;8.530;2023-03-01T10:15:50;17.60;;;10.95;;
30173;SDS011;16985;50.814;8.530;2023-03-01T10:18:24;18.42;;;11.60;;
30173;SDS011;16985;50.814;8.530;2023-03-01T10:23:23;23.77;;;11.10;;
30173;SDS011;16985;50.814;8.530;2023-03-01T10:28:31;15.50;;;9.85;;
30173;SDS011;16985;50.814;8.530;2023-03-01T10:31:12;21.55;;;11.23;;
30173;SDS011;16985;50.814;8.530;2023-03-01T10:33:41;21.88;;;11.48;;
30173;SDS011;16985;50.814;8.530;2023-03-01T10:36:07;21.40;;;11.18;;
30173;SDS011;16985;50.814;8.530;2023-03-01T10:41:17;15.27;;;8.98;;
30173;SDS011;16985;50.814;8.530;2023-03-01T10:43:53;21.02;;;10.70;;
30173;SDS011;16985;50.814;8.530;2023-03-01T10:46:26;19.15;;;9.40;;
30173;SDS011;16985;50.814;8.530;2023-03-01T10:49:07;16.85;;;10.05;;
30173;SDS011;16985;50.814;8.530;2023-03-01T10:51:49;23.35;;;11.43;;
30173;SDS011;16985;50.814;8.530;2023-03-01T10:54:30;18.80;;;10.00;;
30173;SDS011;16985;50.814;8.530;2023-03-01T10:57:01;18.45;;;9.88;;
30173;SDS011;16985;50.814;8.530;2023-03-01T11:04:34;22.60;;;10.57;;
30173;SDS011;16985;50.814;8.530;2023-03-01T11:07:01;16.95;;;8.75;;
30173;SDS011;16985;50.814;8.530;2023-03-01T11:09:31;19.30;;;9.30;;
30173;SDS011;16985;50.814;8.530;2023-03-01T11:12:05;14.52;;;8.38;;
30173;SDS011;16985;50.814;8.530;2023-03-01T11:14:45;13.77;;;8.05;;
30173;SDS011;16985;50.814;8.530;2023-03-01T11:17:29;18.05;;;8.95;;
30173;SDS011;16985;50.814;8.530;2023-03-01T11:20:01;17.65;;;9.27;;
30173;SDS011;16985;50.814;8.530;2023-03-01T11:22:43;13.48;;;8.40;;
30173;SDS011;16985;50.814;8.530;2023-03-01T11:25:17;14.02;;;8.15;;
30173;SDS011;16985;50.814;8.530;2023-03-01T11:27:49;18.13;;;8.70;;
30173;SDS011;16985;50.814;8.530;2023-03-01T11:30:21;17.08;;;8.50;;
30173;SDS011;16985;50.814;8.530;2023-03-01T11:32:57;13.32;;;8.40;;
30173;SDS011;16985;50.814;8.530;2023-03-01T11:35:42;14.85;;;8.02;;
30173;SDS011;16985;50.814;8.530;2023-03-01T11:38:32;10.52;;;7.07;;
30173;SDS011;16985;50.814;8.530;2023-03-01T11:41:08;12.60;;;7.75;;
30173;SDS011;16985;50.814;8.530;2023-03-01T11:52:36;12.52;;;7.38;;
30173;SDS011;16985;50.814;8.530;2023-03-01T12:00:58;19.55;;;9.02;;
30173;SDS011;16985;50.814;8.530;2023-03-01T12:40:46;15.27;;;7.40;;
30173;SDS011;16985;50.814;8.530;2023-03-01T12:49:57;12.18;;;6.95;;
30173;SDS011;16985;50.814;8.530;2023-03-01T12:55:33;11.57;;;7.20;;
30173;SDS011;16985;50.814;8.530;2023-03-01T12:58:08;13.95;;;6.95;;
30173;SDS011;16985;50.814;8.530;2023-03-01T13:04:21;19.17;;;7.68;;
30173;SDS011;16985;50.814;8.530;2023-03-01T13:10:16;12.73;;;7.38;;
30173;SDS011;16985;50.814;8.530;2023-03-01T13:13:25;10.88;;;6.65;;
30173;SDS011;16985;50.814;8.530;2023-03-01T13:15:53;14.52;;;7.32;;
30173;SDS011;16985;50.814;8.530;2023-03-01T13:31:10;14.73;;;6.78;;
30173;SDS011;16985;50.814;8.530;2023-03-01T13:33:43;9.85;;;6.60;;
30173;SDS011;16985;50.814;8.530;2023-03-01T13:37:02;14.25;;;7.80;;
30173;SDS011;16985;50.814;8.530;2023-03-01T13:39:03;9.00;;;5.88;;
30173;SDS011;16985;50.814;8.530;2023-03-01T13:41:58;11.63;;;6.28;;
30173;SDS011;16985;50.814;8.530;2023-03-01T13:47:14;12.65;;;6.57;;
30173;SDS011;16985;50.814;8.530;2023-03-01T13:49:50;11.10;;;5.75;;
30173;SDS011;16985;50.814;8.530;2023-03-01T13:52:40;10.70;;;5.65;;
30173;SDS011;16985;50.814;8.530;2023-03-01T14:00:06;13.02;;;5.57;;
30173;SDS011;16985;50.814;8.530;2023-03-01T14:03:00;10.60;;;5.40;;
30173;SDS011;16985;50.814;8.530;2023-03-01T14:05:38;8.98;;;5.13;;
30173;SDS011;16985;50.814;8.530;2023-03-01T14:08:17;12.02;;;5.85;;
30173;SDS011;16985;50.814;8.530;2023-03-01T14:10:54;11.07;;;6.22;;
30173;SDS011;16985;50.814;8.530;2023-03-01T14:13:54;12.63;;;5.78;;
30173;SDS011;16985;50.814;8.530;2023-03-01T14:17:01;9.93;;;5.70;;
30173;SDS011;16985;50.814;8.530;2023-03-01T14:19:57;12.88;;;6.57;;
30173;SDS011;16985;50.814;8.530;2023-03-01T14:22:27;16.70;;;7.32;;
30173;SDS011;16985;50.814;8.530;2023-03-01T14:24:56;14.90;;;6.68;;
30173;SDS011;16985;50.814;8.530;2023-03-01T14:27:26;13.63;;;5.95;;
30173;SDS011;16985;50.814;8.530;2023-03-01T14:30:44;13.70;;;6.43;;
30173;SDS011;16985;50.814;8.530;2023-03-01T14:32:54;10.48;;;6.57;;
30173;SDS011;16985;50.814;8.530;2023-03-01T14:35:33;14.07;;;6.80;;
30173;SDS011;16985;50.814;8.530;2023-03-01T14:38:00;14.45;;;6.68;;
30173;SDS011;16985;50.814;8.530;2023-03-01T14:40:35;14.65;;;7.05;;
30173;SDS011;16985;50.814;8.530;2023-03-01T14:43:07;10.63;;;6.32;;
30173;SDS011;16985;50.814;8.530;2023-03-01T14:45:39;14.70;;;6.80;;
30173;SDS011;16985;50.814;8.530;2023-03-01T14:48:12;12.90;;;6.00;;
30173;SDS011;16985;50.814;8.530;2023-03-01T14:50:41;11.38;;;6.32;;
30173;SDS011;16985;50.814;8.530;2023-03-01T14:53:19;9.57;;;5.63;;
30173;SDS011;16985;50.814;8.530;2023-03-01T14:55:53;15.70;;;6.97;;
30173;SDS011;16985;50.814;8.530;2023-03-01T14:58:25;17.52;;;7.55;;
30173;SDS011;16985;50.814;8.530;2023-03-01T15:03:27;15.13;;;6.82;;
30173;SDS011;16985;50.814;8.530;2023-03-01T15:06:14;11.63;;;6.20;;
30173;SDS011;16985;50.814;8.530;2023-03-01T15:08:44;9.57;;;5.60;;
30173;SDS011;16985;50.814;8.530;2023-03-01T15:13:49;20.25;;;7.93;;
30173;SDS011;16985;50.814;8.530;2023-03-01T15:16:35;11.80;;;6.57;;
30173;SDS011;16985;50.814;8.530;2023-03-01T15:19:06;19.02;;;6.88;;
30173;SDS011;16985;50.814;8.530;2023-03-01T15:21:33;15.02;;;7.80;;
30173;SDS011;16985;50.814;8.530;2023-03-01T15:24:06;14.30;;;7.35;;
30173;SDS011;16985;50.814;8.530;2023-03-01T15:26:37;17.50;;;7.35;;
30173;SDS011;16985;50.814;8.530;2023-03-01T15:29:11;10.85;;;6.45;;
30173;SDS011;16985;50.814;8.530;2023-03-01T15:31:43;10.00;;;6.25;;
30173;SDS011;16985;50.814;8.530;2023-03-01T15:34:22;9.70;;;6.40;;
30173;SDS011;16985;50.814;8.530;2023-03-01T15:36:53;10.02;;;6.05;;
30173;SDS011;16985;50.814;8.530;2023-03-01T15:42:12;13.15;;;6.63;;
30173;SDS011;16985;50.814;8.530;2023-03-01T15:47:41;11.55;;;6.50;;
30173;SDS011;16985;50.814;8.530;2023-03-01T15:50:26;17.23;;;6.85;;
30173;SDS011;16985;50.814;8.530;2023-03-01T15:53:00;13.30;;;7.25;;
30173;SDS011;16985;50.814;8.530;2023-03-01T15:55:31;12.38;;;6.82;;
30173;SDS011;16985;50.814;8.530;2023-03-01T15:57:59;12.27;;;6.53;;
30173;SDS011;16985;50.814;8.530;2023-03-01T16:00:37;8.73;;;5.93;;
30173;SDS011;16985;50.814;8.530;2023-03-01T16:03:05;12.40;;;6.53;;
30173;SDS011;16985;50.814;8.530;2023-03-01T16:05:34;10.15;;;6.78;;
30173;SDS011;16985;50.814;8.530;2023-03-01T16:08:01;11.15;;;6.05;;
30173;SDS011;16985;50.814;8.530;2023-03-01T16:10:28;9.98;;;6.25;;
30173;SDS011;16985;50.814;8.530;2023-03-01T16:12:55;10.63;;;6.27;;
30173;SDS011;16985;50.814;8.530;2023-03-01T16:15:24;12.45;;;6.32;;
30173;SDS011;16985;50.814;8.530;2023-03-01T16:17:55;10.20;;;6.47;;
30173;SDS011;16985;50.814;8.530;2023-03-01T16:20:23;10.43;;;6.87;;
30173;SDS011;16985;50.814;8.530;2023-03-01T16:22:50;10.60;;;6.13;;
30173;SDS011;16985;50.814;8.530;2023-03-01T16:25:17;13.50;;;6.65;;
30173;SDS011;16985;50.814;8.530;2023-03-01T16:27:45;17.00;;;6.75;;
30173;SDS011;16985;50.814;8.530;2023-03-01T16:30:14;15.05;;;6.88;;
30173;SDS011;16985;50.814;8.530;2023-03-01T16:32:43;11.55;;;6.22;;
30173;SDS011;16985;50.814;8.530;2023-03-01T16:35:12;10.60;;;6.68;;
30173;SDS011;16985;50.814;8.530;2023-03-01T16:37:39;11.82;;;7.13;;
30173;SDS011;16985;50.814;8.530;2023-03-01T16:40:06;12.90;;;6.75;;
30173;SDS011;16985;50.814;8.530;2023-03-01T16:42:43;12.68;;;6.25;;
30173;SDS011;16985;50.814;8.530;2023-03-01T16:45:09;10.25;;;6.72;;
30173;SDS011;16985;50.814;8.530;2023-03-01T16:47:36;11.55;;;6.55;;
30173;SDS011;16985;50.814;8.530;2023-03-01T16:50:02;11.73;;;6.78;;
30173;SDS011;16985;50.814;8.530;2023-03-01T16:52:27;10.15;;;6.45;;
30173;SDS011;16985;50.814;8.530;2023-03-01T16:54:53;13.48;;;8.10;;
30173;SDS011;16985;50.814;8.530;2023-03-01T16:57:19;15.63;;;7.45;;
30173;SDS011;16985;50.814;8.530;2023-03-01T16:59:45;10.40;;;6.32;;
30173;SDS011;16985;50.814;8.530;2023-03-01T17:02:14;12.40;;;6.10;;
30173;SDS011;16985;50.814;8.530;2023-03-01T17:04:44;11.02;;;6.72;;
30173;SDS011;16985;50.814;8.530;2023-03-01T17:07:17;11.98;;;6.97;;
30173;SDS011;16985;50.814;8.530;2023-03-01T17:09:43;12.02;;;6.15;;